sensor_id;sensor_type;location;lat;lon;timestamp;P1;durP1;ratioP1;P2;durP2;ratioP2
82703;SDS011;72427;42.000;21.464;2024-03-23T00:56:08;3.08;;;1.35;;
82703;SDS011;72427;42.000;21.464;2024-03-23T00:58:34;3.53;;;1.42;;
82703;SDS011;72427;42.000;21.464;2024-03-23T01:01:00;2.97;;;1.52;;
82703;SDS011;72427;42.000;21.464;2024-03-23T01:03:28;5.63;;;1.85;;
82703;SDS011;72427;42.000;21.464;2024-03-23T01:05:54;3.38;;;2.30;;
82703;SDS011;72427;42.000;21.464;2024-03-23T01:08:20;4.25;;;2.00;;
82703;SDS011;72427;42.000;21.464;2024-03-23T01:10:56;5.00;;;2.60;;
82703;SDS011;72427;42.000;21.464;2024-03-23T01:13:22;4.35;;;2.70;;
82703;SDS011;72427;42.000;21.464;2024-03-23T01:15:52;3.25;;;1.80;;
82703;SDS011;72427;42.000;21.464;2024-03-23T01:20:44;2.78;;;1.52;;
82703;SDS011;72427;42.000;21.464;2024-03-23T01:23:10;7.18;;;2.45;;
82703;SDS011;72427;42.000;21.464;2024-03-23T01:25:36;3.95;;;1.85;;
82703;SDS011;72427;42.000;21.464;2024-03-23T01:28:03;2.17;;;1.60;;
82703;SDS011;72427;42.000;21.464;2024-03-23T01:30:29;6.32;;;2.72;;
82703;SDS011;72427;42.000;21.464;2024-03-23T01:32:55;3.38;;;1.75;;
82703;SDS011;72427;42.000;21.464;2024-03-23T01:35:21;1.58;;;1.02;;
82703;SDS011;72427;42.000;21.464;2024-03-23T01:37:48;4.78;;;2.50;;
82703;SDS011;72427;42.000;21.464;2024-03-23T01:40:15;2.45;;;1.50;;
82703;SDS011;72427;42.000;21.464;2024-03-23T01:42:41;5.28;;;1.98;;
82703;SDS011;72427;42.000;21.464;2024-03-23T01:45:08;3.05;;;1.52;;
82703;SDS011;72427;42.000;21.464;2024-03-23T01:47:37;2.65;;;1.92;;
82703;SDS011;72427;42.000;21.464;2024-03-23T01:50:03;4.55;;;2.70;;
82703;SDS011;72427;42.000;21.464;2024-03-23T01:52:29;4.10;;;2.05;;
82703;SDS011;72427;42.000;21.464;2024-03-23T01:54:55;4.28;;;2.67;;
82703;SDS011;72427;42.000;21.464;2024-03-23T01:57:21;3.47;;;2.05;;
82703;SDS011;72427;42.000;21.464;2024-03-23T01:59:47;4.50;;;2.95;;
82703;SDS011;72427;42.000;21.464;2024-03-23T02:02:14;3.78;;;2.42;;
82703;SDS011;72427;42.000;21.464;2024-03-23T02:04:42;3.53;;;1.83;;
82703;SDS011;72427;42.000;21.464;2024-03-23T02:07:08;7.07;;;2.67;;
82703;SDS011;72427;42.000;21.464;2024-03-23T02:09:34;4.65;;;2.03;;
82703;SDS011;72427;42.000;21.464;2024-03-23T02:12:02;3.33;;;1.60;;
82703;SDS011;72427;42.000;21.464;2024-03-23T02:14:28;3.33;;;1.67;;
82703;SDS011;72427;42.000;21.464;2024-03-23T02:16:54;2.80;;;2.15;;
82703;SDS011;72427;42.000;21.464;2024-03-23T02:19:20;3.50;;;2.60;;
82703;SDS011;72427;42.000;21.464;2024-03-23T02:21:46;5.15;;;1.63;;
82703;SDS011;72427;42.000;21.464;2024-03-23T02:24:12;1.98;;;1.45;;
82703;SDS011;72427;42.000;21.464;2024-03-23T02:26:38;2.28;;;1.80;;
82703;SDS011;72427;42.000;21.464;2024-03-23T02:29:04;5.07;;;1.63;;
82703;SDS011;72427;42.000;21.464;2024-03-23T02:31:30;3.03;;;1.33;;
82703;SDS011;72427;42.000;21.464;2024-03-23T02:33:56;5.63;;;1.25;;
82703;SDS011;72427;42.000;21.464;2024-03-23T02:36:22;1.85;;;1.20;;
82703;SDS011;72427;42.000;21.464;2024-03-23T02:38:48;0.77;;;0.65;;
82703;SDS011;72427;42.000;21.464;2024-03-23T02:41:14;1.35;;;1.00;;
82703;SDS011;72427;42.000;21.464;2024-03-23T02:43:48;3.50;;;1.38;;
82703;SDS011;72427;42.000;21.464;2024-03-23T02:46:14;1.95;;;1.40;;
82703;SDS011;72427;42.000;21.464;2024-03-23T02:48:40;1.95;;;1.60;;
82703;SDS011;72427;42.000;21.464;2024-03-23T02:51:06;12.25;;;2.25;;
82703;SDS011;72427;42.000;21.464;2024-03-23T02:53:32;1.88;;;1.17;;
82703;SDS011;72427;42.000;21.464;2024-03-23T02:55:58;2.28;;;1.13;;
82703;SDS011;72427;42.000;21.464;2024-03-23T02:58:24;2.28;;;1.42;;
82703;SDS011;72427;42.000;21.464;2024-03-23T03:00:50;0.50;;;0.30;;
82703;SDS011;72427;42.000;21.464;2024-03-23T03:03:16;4.25;;;1.23;;
82703;SDS011;72427;42.000;21.464;2024-03-23T03:05:42;2.15;;;1.00;;
82703;SDS011;72427;42.000;21.464;2024-03-23T03:08:08;1.70;;;0.77;;
82703;SDS011;72427;42.000;21.464;2024-03-23T03:10:34;2.20;;;1.30;;
82703;SDS011;72427;42.000;21.464;2024-03-23T03:13:01;5.28;;;1.30;;
82703;SDS011;72427;42.000;21.464;2024-03-23T03:15:27;8.73;;;1.23;;
82703;SDS011;72427;42.000;21.464;2024-03-23T03:17:53;2.63;;;1.58;;
82703;SDS011;72427;42.000;21.464;2024-03-23T03:20:19;4.00;;;1.70;;
82703;SDS011;72427;42.000;21.464;2024-03-23T03:22:48;2.63;;;1.52;;
82703;SDS011;72427;42.000;21.464;2024-03-23T03:25:14;3.45;;;1.38;;
82703;SDS011;72427;42.000;21.464;2024-03-23T03:27:40;3.25;;;1.70;;
82703;SDS011;72427;42.000;21.464;2024-03-23T03:30:06;1.02;;;0.57;;
82703;SDS011;72427;42.000;21.464;2024-03-23T03:32:33;1.15;;;0.65;;
82703;SDS011;72427;42.000;21.464;2024-03-23T03:34:59;2.80;;;1.80;;
82703;SDS011;72427;42.000;21.464;2024-03-23T03:37:25;4.93;;;2.03;;
82703;SDS011;72427;42.000;21.464;2024-03-23T03:39:51;6.18;;;1.33;;
82703;SDS011;72427;42.000;21.464;2024-03-23T03:42:17;1.92;;;0.90;;
82703;SDS011;72427;42.000;21.464;2024-03-23T03:44:43;4.50;;;1.35;;
82703;SDS011;72427;42.000;21.464;2024-03-23T03:47:09;1.42;;;0.90;;
82703;SDS011;72427;42.000;21.464;2024-03-23T03:49:35;2.03;;;1.35;;
82703;SDS011;72427;42.000;21.464;2024-03-23T03:52:01;3.53;;;1.88;;
82703;SDS011;72427;42.000;21.464;2024-03-23T03:54:28;2.03;;;1.08;;
82703;SDS011;72427;42.000;21.464;2024-03-23T03:56:54;0.30;;;0.25;;
82703;SDS011;72427;42.000;21.464;2024-03-23T03:59:20;1.70;;;0.93;;
82703;SDS011;72427;42.000;21.464;2024-03-23T04:01:46;1.45;;;0.75;;
82703;SDS011;72427;42.000;21.464;2024-03-23T04:04:12;3.70;;;1.45;;
82703;SDS011;72427;42.000;21.464;2024-03-23T04:06:39;1.48;;;0.90;;
82703;SDS011;72427;42.000;21.464;2024-03-23T04:09:05;4.05;;;2.25;;
82703;SDS011;72427;42.000;21.464;2024-03-23T04:11:31;3.72;;;1.40;;
82703;SDS011;72427;42.000;21.464;2024-03-23T04:13:57;1.52;;;0.85;;
82703;SDS011;72427;42.000;21.464;2024-03-23T04:16:27;2.65;;;0.93;;
82703;SDS011;72427;42.000;21.464;2024-03-23T04:18:53;3.35;;;1.50;;
82703;SDS011;72427;42.000;21.464;2024-03-23T04:21:20;2.78;;;1.45;;
82703;SDS011;72427;42.000;21.464;2024-03-23T04:23:46;2.03;;;1.10;;
82703;SDS011;72427;42.000;21.464;2024-03-23T04:26:12;1.33;;;0.88;;
82703;SDS011;72427;42.000;21.464;2024-03-23T04:28:38;1.17;;;0.98;;
82703;SDS011;72427;42.000;21.464;2024-03-23T04:31:04;2.15;;;1.13;;
82703;SDS011;72427;42.000;21.464;2024-03-23T04:33:30;1.90;;;1.05;;
82703;SDS011;72427;42.000;21.464;2024-03-23T04:35:56;4.28;;;2.65;;
82703;SDS011;72427;42.000;21.464;2024-03-23T04:38:22;5.72;;;2.35;;
82703;SDS011;72427;42.000;21.464;2024-03-23T04:40:57;5.38;;;3.65;;
82703;SDS011;72427;42.000;21.464;2024-03-23T04:43:24;2.42;;;2.00;;
82703;SDS011;72427;42.000;21.464;2024-03-23T04:45:50;4.35;;;2.90;;
82703;SDS011;72427;42.000;21.464;2024-03-23T04:48:19;4.55;;;0.88;;
82703;SDS011;72427;42.000;21.464;2024-03-23T04:50:45;5.45;;;2.78;;
82703;SDS011;72427;42.000;21.464;2024-03-23T04:53:11;7.32;;;2.90;;
82703;SDS011;72427;42.000;21.464;2024-03-23T04:55:37;1.80;;;1.50;;
82703;SDS011;72427;42.000;21.464;2024-03-23T04:58:03;9.73;;;2.78;;
82703;SDS011;72427;42.000;21.464;2024-03-23T05:00:29;7.72;;;3.42;;
82703;SDS011;72427;42.000;21.464;2024-03-23T05:02:55;8.57;;;2.03;;
82703;SDS011;72427;42.000;21.464;2024-03-23T05:05:21;2.72;;;1.92;;
82703;SDS011;72427;42.000;21.464;2024-03-23T05:07:47;8.10;;;3.13;;
82703;SDS011;72427;42.000;21.464;2024-03-23T05:10:13;4.10;;;3.08;;
82703;SDS011;72427;42.000;21.464;2024-03-23T05:12:40;6.00;;;2.58;;
82703;SDS011;72427;42.000;21.464;2024-03-23T05:15:06;5.60;;;3.35;;
82703;SDS011;72427;42.000;21.464;2024-03-23T05:17:35;3.05;;;1.80;;
82703;SDS011;72427;42.000;21.464;2024-03-23T05:20:02;2.97;;;1.50;;
82703;SDS011;72427;42.000;21.464;2024-03-23T05:22:28;8.48;;;2.63;;
82703;SDS011;72427;42.000;21.464;2024-03-23T05:24:55;4.30;;;2.80;;
82703;SDS011;72427;42.000;21.464;2024-03-23T05:27:21;6.20;;;3.30;;
82703;SDS011;72427;42.000;21.464;2024-03-23T05:29:48;10.02;;;2.58;;
82703;SDS011;72427;42.000;21.464;2024-03-23T05:32:14;7.40;;;3.78;;
82703;SDS011;72427;42.000;21.464;2024-03-23T05:34:40;5.40;;;3.20;;
82703;SDS011;72427;42.000;21.464;2024-03-23T05:37:06;8.60;;;3.35;;
82703;SDS011;72427;42.000;21.464;2024-03-23T05:39:32;6.75;;;2.70;;
82703;SDS011;72427;42.000;21.464;2024-03-23T05:41:58;5.38;;;2.63;;
82703;SDS011;72427;42.000;21.464;2024-03-23T05:44:24;7.25;;;3.17;;
82703;SDS011;72427;42.000;21.464;2024-03-23T05:46:50;5.45;;;2.38;;
82703;SDS011;72427;42.000;21.464;2024-03-23T05:49:16;2.63;;;1.38;;
82703;SDS011;72427;42.000;21.464;2024-03-23T05:51:43;3.95;;;1.75;;
82703;SDS011;72427;42.000;21.464;2024-03-23T05:54:09;5.50;;;2.38;;
82703;SDS011;72427;42.000;21.464;2024-03-23T05:56:35;4.32;;;2.35;;
82703;SDS011;72427;42.000;21.464;2024-03-23T05:59:01;2.28;;;1.40;;
82703;SDS011;72427;42.000;21.464;2024-03-23T06:01:28;5.45;;;2.97;;
82703;SDS011;72427;42.000;21.464;2024-03-23T06:03:57;4.38;;;2.83;;
82703;SDS011;72427;42.000;21.464;2024-03-23T06:06:23;5.25;;;2.83;;
82703;SDS011;72427;42.000;21.464;2024-03-23T06:08:49;3.88;;;2.42;;
82703;SDS011;72427;42.000;21.464;2024-03-23T06:11:15;5.53;;;2.95;;
82703;SDS011;72427;42.000;21.464;2024-03-23T06:13:41;5.18;;;2.60;;
82703;SDS011;72427;42.000;21.464;2024-03-23T06:16:07;8.50;;;2.97;;
82703;SDS011;72427;42.000;21.464;2024-03-23T06:18:33;8.13;;;3.58;;
82703;SDS011;72427;42.000;21.464;2024-03-23T06:20:59;5.82;;;2.22;;
82703;SDS011;72427;42.000;21.464;2024-03-23T06:23:25;4.60;;;3.47;;
82703;SDS011;72427;42.000;21.464;2024-03-23T06:25:51;5.10;;;2.53;;
82703;SDS011;72427;42.000;21.464;2024-03-23T06:28:17;7.68;;;4.43;;
82703;SDS011;72427;42.000;21.464;2024-03-23T06:30:44;6.45;;;3.97;;
82703;SDS011;72427;42.000;21.464;2024-03-23T06:33:10;5.30;;;2.67;;
82703;SDS011;72427;42.000;21.464;2024-03-23T06:35:36;8.35;;;2.72;;
82703;SDS011;72427;42.000;21.464;2024-03-23T06:38:02;3.40;;;1.40;;
82703;SDS011;72427;42.000;21.464;2024-03-23T06:40:28;5.47;;;2.92;;
82703;SDS011;72427;42.000;21.464;2024-03-23T06:42:54;5.10;;;3.08;;
82703;SDS011;72427;42.000;21.464;2024-03-23T06:45:20;6.90;;;3.38;;
82703;SDS011;72427;42.000;21.464;2024-03-23T06:47:48;3.00;;;2.13;;
82703;SDS011;72427;42.000;21.464;2024-03-23T06:50:15;9.45;;;4.07;;
82703;SDS011;72427;42.000;21.464;2024-03-23T06:52:41;10.52;;;3.53;;
82703;SDS011;72427;42.000;21.464;2024-03-23T06:55:07;5.50;;;2.30;;
82703;SDS011;72427;42.000;21.464;2024-03-23T06:57:33;8.77;;;4.70;;
82703;SDS011;72427;42.000;21.464;2024-03-23T06:59:59;13.68;;;5.65;;
82703;SDS011;72427;42.000;21.464;2024-03-23T07:02:25;6.70;;;4.07;;
82703;SDS011;72427;42.000;21.464;2024-03-23T07:04:51;8.20;;;3.53;;
82703;SDS011;72427;42.000;21.464;2024-03-23T07:07:17;6.10;;;3.65;;
82703;SDS011;72427;42.000;21.464;2024-03-23T07:09:43;6.80;;;2.92;;
82703;SDS011;72427;42.000;21.464;2024-03-23T07:12:09;6.97;;;4.28;;
82703;SDS011;72427;42.000;21.464;2024-03-23T07:14:35;11.65;;;4.82;;
82703;SDS011;72427;42.000;21.464;2024-03-23T07:17:01;10.18;;;3.88;;
82703;SDS011;72427;42.000;21.464;2024-03-23T07:19:27;6.45;;;3.83;;
82703;SDS011;72427;42.000;21.464;2024-03-23T07:21:53;8.82;;;3.65;;
82703;SDS011;72427;42.000;21.464;2024-03-23T07:24:19;7.53;;;4.22;;
82703;SDS011;72427;42.000;21.464;2024-03-23T07:26:45;11.38;;;3.58;;
82703;SDS011;72427;42.000;21.464;2024-03-23T07:29:12;7.30;;;3.55;;
82703;SDS011;72427;42.000;21.464;2024-03-23T07:31:38;7.07;;;4.28;;
82703;SDS011;72427;42.000;21.464;2024-03-23T07:34:04;6.10;;;2.78;;
82703;SDS011;72427;42.000;21.464;2024-03-23T07:36:30;7.32;;;3.70;;
82703;SDS011;72427;42.000;21.464;2024-03-23T07:38:56;6.82;;;3.25;;
82703;SDS011;72427;42.000;21.464;2024-03-23T07:41:22;10.60;;;3.83;;
82703;SDS011;72427;42.000;21.464;2024-03-23T07:43:49;7.22;;;3.28;;
82703;SDS011;72427;42.000;21.464;2024-03-23T07:46:15;9.27;;;4.00;;
82703;SDS011;72427;42.000;21.464;2024-03-23T07:48:41;7.97;;;3.90;;
82703;SDS011;72427;42.000;21.464;2024-03-23T07:51:08;6.82;;;3.40;;
82703;SDS011;72427;42.000;21.464;2024-03-23T07:53:35;7.18;;;3.25;;
82703;SDS011;72427;42.000;21.464;2024-03-23T07:56:06;9.40;;;3.67;;
82703;SDS011;72427;42.000;21.464;2024-03-23T07:58:32;5.95;;;2.78;;
82703;SDS011;72427;42.000;21.464;2024-03-23T08:01:07;9.88;;;3.58;;
82703;SDS011;72427;42.000;21.464;2024-03-23T08:03:37;6.13;;;2.70;;
82703;SDS011;72427;42.000;21.464;2024-03-23T08:06:10;7.15;;;3.67;;
82703;SDS011;72427;42.000;21.464;2024-03-23T08:08:36;6.90;;;3.28;;
82703;SDS011;72427;42.000;21.464;2024-03-23T08:11:02;5.68;;;3.45;;
82703;SDS011;72427;42.000;21.464;2024-03-23T08:13:31;6.75;;;2.80;;
82703;SDS011;72427;42.000;21.464;2024-03-23T08:15:58;8.45;;;2.90;;
82703;SDS011;72427;42.000;21.464;2024-03-23T08:18:24;6.03;;;2.45;;
82703;SDS011;72427;42.000;21.464;2024-03-23T08:20:56;8.80;;;3.90;;
82703;SDS011;72427;42.000;21.464;2024-03-23T08:23:23;6.82;;;3.47;;
82703;SDS011;72427;42.000;21.464;2024-03-23T08:25:49;8.48;;;2.78;;
82703;SDS011;72427;42.000;21.464;2024-03-23T08:28:15;11.27;;;3.47;;
82703;SDS011;72427;42.000;21.464;2024-03-23T08:30:42;5.32;;;2.85;;
82703;SDS011;72427;42.000;21.464;2024-03-23T08:33:08;7.53;;;3.33;;
82703;SDS011;72427;42.000;21.464;2024-03-23T08:35:34;8.65;;;3.30;;
82703;SDS011;72427;42.000;21.464;2024-03-23T08:38:01;7.32;;;3.35;;
82703;SDS011;72427;42.000;21.464;2024-03-23T08:40:27;7.07;;;3.05;;
82703;SDS011;72427;42.000;21.464;2024-03-23T08:42:53;6.30;;;2.97;;
82703;SDS011;72427;42.000;21.464;2024-03-23T08:45:19;7.72;;;3.58;;
82703;SDS011;72427;42.000;21.464;2024-03-23T08:47:45;6.28;;;3.22;;
82703;SDS011;72427;42.000;21.464;2024-03-23T08:50:11;6.18;;;2.72;;
82703;SDS011;72427;42.000;21.464;2024-03-23T08:52:37;8.73;;;2.72;;
82703;SDS011;72427;42.000;21.464;2024-03-23T08:55:03;7.05;;;3.17;;
82703;SDS011;72427;42.000;21.464;2024-03-23T08:57:29;5.80;;;2.88;;
82703;SDS011;72427;42.000;21.464;2024-03-23T08:59:55;5.00;;;2.70;;
82703;SDS011;72427;42.000;21.464;2024-03-23T09:02:21;6.40;;;3.40;;
82703;SDS011;72427;42.000;21.464;2024-03-23T09:04:47;7.97;;;3.85;;
82703;SDS011;72427;42.000;21.464;2024-03-23T09:07:13;7.88;;;3.55;;
82703;SDS011;72427;42.000;21.464;2024-03-23T09:09:39;8.82;;;4.05;;
82703;SDS011;72427;42.000;21.464;2024-03-23T09:12:05;6.25;;;2.83;;
82703;SDS011;72427;42.000;21.464;2024-03-23T09:14:32;8.43;;;3.92;;
82703;SDS011;72427;42.000;21.464;2024-03-23T09:16:58;5.38;;;3.05;;
82703;SDS011;72427;42.000;21.464;2024-03-23T09:19:26;6.15;;;2.53;;
82703;SDS011;72427;42.000;21.464;2024-03-23T09:21:52;7.05;;;3.35;;
82703;SDS011;72427;42.000;21.464;2024-03-23T09:24:18;6.75;;;3.10;;
82703;SDS011;72427;42.000;21.464;2024-03-23T09:26:44;7.80;;;3.58;;
82703;SDS011;72427;42.000;21.464;2024-03-23T09:29:10;6.22;;;3.35;;
82703;SDS011;72427;42.000;21.464;2024-03-23T09:31:36;6.18;;;2.95;;
82703;SDS011;72427;42.000;21.464;2024-03-23T09:34:03;6.90;;;3.20;;
82703;SDS011;72427;42.000;21.464;2024-03-23T09:36:29;4.90;;;2.25;;
82703;SDS011;72427;42.000;21.464;2024-03-23T09:38:56;5.70;;;2.63;;
82703;SDS011;72427;42.000;21.464;2024-03-23T09:41:22;8.32;;;3.90;;
82703;SDS011;72427;42.000;21.464;2024-03-23T09:43:52;6.47;;;3.60;;
82703;SDS011;72427;42.000;21.464;2024-03-23T09:46:18;5.90;;;3.17;;
82703;SDS011;72427;42.000;21.464;2024-03-23T09:48:44;6.38;;;3.00;;
82703;SDS011;72427;42.000;21.464;2024-03-23T09:51:12;7.95;;;4.13;;
82703;SDS011;72427;42.000;21.464;2024-03-23T09:53:38;8.18;;;3.47;;
82703;SDS011;72427;42.000;21.464;2024-03-23T09:56:04;7.63;;;3.25;;
82703;SDS011;72427;42.000;21.464;2024-03-23T09:58:30;5.47;;;2.85;;
82703;SDS011;72427;42.000;21.464;2024-03-23T10:00:59;7.78;;;3.80;;
82703;SDS011;72427;42.000;21.464;2024-03-23T10:03:25;7.03;;;3.28;;
82703;SDS011;72427;42.000;21.464;2024-03-23T10:06:03;6.13;;;3.45;;
82703;SDS011;72427;42.000;21.464;2024-03-23T10:08:30;7.15;;;3.08;;
82703;SDS011;72427;42.000;21.464;2024-03-23T10:10:58;6.20;;;3.20;;
82703;SDS011;72427;42.000;21.464;2024-03-23T10:13:37;6.20;;;2.67;;
82703;SDS011;72427;42.000;21.464;2024-03-23T10:16:06;5.38;;;2.92;;
82703;SDS011;72427;42.000;21.464;2024-03-23T10:18:32;6.63;;;2.95;;
82703;SDS011;72427;42.000;21.464;2024-03-23T10:23:34;6.32;;;3.35;;
82703;SDS011;72427;42.000;21.464;2024-03-23T10:28:26;6.35;;;2.80;;
82703;SDS011;72427;42.000;21.464;2024-03-23T10:30:52;5.80;;;2.53;;
82703;SDS011;72427;42.000;21.464;2024-03-23T10:33:18;6.65;;;3.25;;
82703;SDS011;72427;42.000;21.464;2024-03-23T10:35:46;5.88;;;2.70;;
82703;SDS011;72427;42.000;21.464;2024-03-23T10:38:12;8.73;;;3.20;;
82703;SDS011;72427;42.000;21.464;2024-03-23T10:40:39;7.03;;;3.58;;
82703;SDS011;72427;42.000;21.464;2024-03-23T10:43:06;7.10;;;3.17;;
82703;SDS011;72427;42.000;21.464;2024-03-23T10:45:34;4.35;;;2.58;;
82703;SDS011;72427;42.000;21.464;2024-03-23T10:48:00;5.00;;;2.63;;
82703;SDS011;72427;42.000;21.464;2024-03-23T10:50:27;6.35;;;2.75;;
82703;SDS011;72427;42.000;21.464;2024-03-23T10:52:53;6.03;;;2.65;;
82703;SDS011;72427;42.000;21.464;2024-03-23T10:55:23;5.45;;;2.38;;
82703;SDS011;72427;42.000;21.464;2024-03-23T10:57:50;5.10;;;2.35;;
82703;SDS011;72427;42.000;21.464;2024-03-23T11:00:17;4.90;;;2.50;;
82703;SDS011;72427;42.000;21.464;2024-03-23T11:02:43;6.53;;;2.60;;
82703;SDS011;72427;42.000;21.464;2024-03-23T11:07:50;6.32;;;3.15;;
82703;SDS011;72427;42.000;21.464;2024-03-23T11:10:27;5.50;;;2.20;;
82703;SDS011;72427;42.000;21.464;2024-03-23T11:12:54;5.40;;;2.58;;
82703;SDS011;72427;42.000;21.464;2024-03-23T11:15:20;4.90;;;2.55;;
82703;SDS011;72427;42.000;21.464;2024-03-23T11:18:02;4.68;;;2.08;;
82703;SDS011;72427;42.000;21.464;2024-03-23T11:20:32;5.10;;;2.25;;
82703;SDS011;72427;42.000;21.464;2024-03-23T11:22:59;5.18;;;2.55;;
82703;SDS011;72427;42.000;21.464;2024-03-23T11:25:26;4.85;;;2.25;;
82703;SDS011;72427;42.000;21.464;2024-03-23T11:27:52;4.90;;;2.22;;
82703;SDS011;72427;42.000;21.464;2024-03-23T11:32:46;7.10;;;2.58;;
82703;SDS011;72427;42.000;21.464;2024-03-23T11:38:14;6.53;;;2.50;;
82703;SDS011;72427;42.000;21.464;2024-03-23T11:40:43;4.82;;;2.63;;
82703;SDS011;72427;42.000;21.464;2024-03-23T11:43:11;5.03;;;2.15;;
82703;SDS011;72427;42.000;21.464;2024-03-23T11:45:38;4.55;;;2.00;;
82703;SDS011;72427;42.000;21.464;2024-03-23T11:50:31;5.57;;;2.08;;
82703;SDS011;72427;42.000;21.464;2024-03-23T11:56:05;4.47;;;2.45;;
82703;SDS011;72427;42.000;21.464;2024-03-23T12:00:56;6.53;;;2.30;;
82703;SDS011;72427;42.000;21.464;2024-03-23T12:03:25;4.60;;;2.05;;
82703;SDS011;72427;42.000;21.464;2024-03-23T12:05:53;3.85;;;1.85;;
82703;SDS011;72427;42.000;21.464;2024-03-23T12:10:50;3.60;;;1.85;;
82703;SDS011;72427;42.000;21.464;2024-03-23T12:13:17;4.10;;;1.80;;
82703;SDS011;72427;42.000;21.464;2024-03-23T12:15:44;3.30;;;1.75;;
82703;SDS011;72427;42.000;21.464;2024-03-23T12:18:10;4.82;;;2.22;;
82703;SDS011;72427;42.000;21.464;2024-03-23T12:20:37;4.10;;;1.83;;
82703;SDS011;72427;42.000;21.464;2024-03-23T12:23:07;5.85;;;1.80;;
82703;SDS011;72427;42.000;21.464;2024-03-23T12:25:34;5.40;;;2.10;;
82703;SDS011;72427;42.000;21.464;2024-03-23T12:28:00;3.63;;;1.80;;
82703;SDS011;72427;42.000;21.464;2024-03-23T12:30:26;3.50;;;1.48;;
82703;SDS011;72427;42.000;21.464;2024-03-23T12:32:52;4.05;;;1.88;;
82703;SDS011;72427;42.000;21.464;2024-03-23T12:35:18;3.55;;;2.08;;
82703;SDS011;72427;42.000;21.464;2024-03-23T12:37:44;4.00;;;1.70;;
82703;SDS011;72427;42.000;21.464;2024-03-23T12:40:10;5.13;;;2.30;;
82703;SDS011;72427;42.000;21.464;2024-03-23T12:42:36;3.75;;;1.83;;
82703;SDS011;72427;42.000;21.464;2024-03-23T12:45:03;4.40;;;1.95;;
82703;SDS011;72427;42.000;21.464;2024-03-23T12:47:30;3.50;;;1.73;;
82703;SDS011;72427;42.000;21.464;2024-03-23T12:49:56;4.72;;;2.03;;
82703;SDS011;72427;42.000;21.464;2024-03-23T12:52:22;3.80;;;1.75;;
82703;SDS011;72427;42.000;21.464;2024-03-23T12:54:53;3.83;;;1.77;;
82703;SDS011;72427;42.000;21.464;2024-03-23T12:57:21;4.07;;;1.90;;
82703;SDS011;72427;42.000;21.464;2024-03-23T12:59:47;5.00;;;2.55;;
82703;SDS011;72427;42.000;21.464;2024-03-23T13:02:15;4.18;;;1.60;;
82703;SDS011;72427;42.000;21.464;2024-03-23T13:04:41;5.82;;;1.95;;
82703;SDS011;72427;42.000;21.464;2024-03-23T13:07:08;4.63;;;1.73;;
82703;SDS011;72427;42.000;21.464;2024-03-23T13:09:34;4.25;;;2.17;;
82703;SDS011;72427;42.000;21.464;2024-03-23T13:12:00;4.13;;;1.75;;
82703;SDS011;72427;42.000;21.464;2024-03-23T13:14:27;6.03;;;2.13;;
82703;SDS011;72427;42.000;21.464;2024-03-23T13:16:53;4.78;;;2.33;;
82703;SDS011;72427;42.000;21.464;2024-03-23T13:19:19;4.40;;;1.67;;
82703;SDS011;72427;42.000;21.464;2024-03-23T13:21:45;6.53;;;2.35;;
82703;SDS011;72427;42.000;21.464;2024-03-23T13:24:11;5.25;;;2.30;;
82703;SDS011;72427;42.000;21.464;2024-03-23T13:26:37;5.00;;;2.17;;
82703;SDS011;72427;42.000;21.464;2024-03-23T13:29:03;3.63;;;1.52;;
82703;SDS011;72427;42.000;21.464;2024-03-23T13:31:29;4.00;;;1.88;;
82703;SDS011;72427;42.000;21.464;2024-03-23T13:33:55;4.60;;;1.90;;
82703;SDS011;72427;42.000;21.464;2024-03-23T13:36:21;3.38;;;1.60;;
82703;SDS011;72427;42.000;21.464;2024-03-23T13:38:47;3.05;;;1.45;;
82703;SDS011;72427;42.000;21.464;2024-03-23T13:41:13;6.35;;;2.55;;
82703;SDS011;72427;42.000;21.464;2024-03-23T13:43:39;4.35;;;1.80;;
82703;SDS011;72427;42.000;21.464;2024-03-23T13:46:06;4.25;;;1.65;;
82703;SDS011;72427;42.000;21.464;2024-03-23T13:48:32;5.15;;;1.70;;
82703;SDS011;72427;42.000;21.464;2024-03-23T13:50:59;6.25;;;2.30;;
82703;SDS011;72427;42.000;21.464;2024-03-23T13:53:25;4.57;;;1.80;;
82703;SDS011;72427;42.000;21.464;2024-03-23T13:55:52;5.88;;;2.97;;
82703;SDS011;72427;42.000;21.464;2024-03-23T13:58:18;6.40;;;2.15;;
82703;SDS011;72427;42.000;21.464;2024-03-23T14:00:44;4.32;;;1.88;;
82703;SDS011;72427;42.000;21.464;2024-03-23T14:03:11;2.88;;;1.50;;
82703;SDS011;72427;42.000;21.464;2024-03-23T14:05:37;4.15;;;2.10;;
82703;SDS011;72427;42.000;21.464;2024-03-23T14:08:10;3.88;;;1.92;;
82703;SDS011;72427;42.000;21.464;2024-03-23T14:10:40;4.93;;;1.90;;
82703;SDS011;72427;42.000;21.464;2024-03-23T14:13:06;4.18;;;1.90;;
82703;SDS011;72427;42.000;21.464;2024-03-23T14:15:32;3.78;;;1.58;;
82703;SDS011;72427;42.000;21.464;2024-03-23T14:17:58;3.13;;;1.50;;
82703;SDS011;72427;42.000;21.464;2024-03-23T14:20:25;3.42;;;1.60;;
82703;SDS011;72427;42.000;21.464;2024-03-23T14:22:51;2.38;;;1.20;;
82703;SDS011;72427;42.000;21.464;2024-03-23T14:25:17;4.75;;;2.00;;
82703;SDS011;72427;42.000;21.464;2024-03-23T14:27:44;3.75;;;1.38;;
82703;SDS011;72427;42.000;21.464;2024-03-23T14:30:10;4.18;;;1.70;;
82703;SDS011;72427;42.000;21.464;2024-03-23T14:32:37;4.55;;;1.98;;
82703;SDS011;72427;42.000;21.464;2024-03-23T14:35:03;4.13;;;1.70;;
82703;SDS011;72427;42.000;21.464;2024-03-23T14:37:29;2.83;;;1.25;;
82703;SDS011;72427;42.000;21.464;2024-03-23T14:39:56;3.42;;;1.42;;
82703;SDS011;72427;42.000;21.464;2024-03-23T14:42:23;3.42;;;1.33;;
82703;SDS011;72427;42.000;21.464;2024-03-23T14:44:49;3.80;;;1.80;;
82703;SDS011;72427;42.000;21.464;2024-03-23T14:47:15;4.05;;;1.88;;
82703;SDS011;72427;42.000;21.464;2024-03-23T14:49:42;3.85;;;1.60;;
82703;SDS011;72427;42.000;21.464;2024-03-23T14:52:12;4.43;;;1.77;;
82703;SDS011;72427;42.000;21.464;2024-03-23T14:54:38;4.40;;;1.63;;
82703;SDS011;72427;42.000;21.464;2024-03-23T14:57:04;2.75;;;1.10;;
82703;SDS011;72427;42.000;21.464;2024-03-23T14:59:31;4.05;;;1.75;;
82703;SDS011;72427;42.000;21.464;2024-03-23T15:01:57;2.80;;;1.30;;
82703;SDS011;72427;42.000;21.464;2024-03-23T15:04:24;5.22;;;1.85;;
82703;SDS011;72427;42.000;21.464;2024-03-23T15:06:50;4.07;;;1.95;;
82703;SDS011;72427;42.000;21.464;2024-03-23T15:09:16;3.97;;;1.58;;
82703;SDS011;72427;42.000;21.464;2024-03-23T15:11:43;4.03;;;1.50;;
82703;SDS011;72427;42.000;21.464;2024-03-23T15:14:09;3.30;;;1.45;;
82703;SDS011;72427;42.000;21.464;2024-03-23T15:16:36;5.95;;;1.55;;
82703;SDS011;72427;42.000;21.464;2024-03-23T15:19:02;4.72;;;1.58;;
82703;SDS011;72427;42.000;21.464;2024-03-23T15:23:57;2.83;;;1.27;;
82703;SDS011;72427;42.000;21.464;2024-03-23T15:26:23;2.75;;;1.25;;
82703;SDS011;72427;42.000;21.464;2024-03-23T15:28:49;3.13;;;1.38;;
82703;SDS011;72427;42.000;21.464;2024-03-23T15:31:21;3.53;;;1.33;;
82703;SDS011;72427;42.000;21.464;2024-03-23T15:33:47;3.58;;;1.52;;
82703;SDS011;72427;42.000;21.464;2024-03-23T15:36:13;3.30;;;1.35;;
82703;SDS011;72427;42.000;21.464;2024-03-23T15:38:39;4.57;;;1.80;;
82703;SDS011;72427;42.000;21.464;2024-03-23T15:41:05;4.00;;;1.73;;
82703;SDS011;72427;42.000;21.464;2024-03-23T15:43:31;4.20;;;1.70;;
82703;SDS011;72427;42.000;21.464;2024-03-23T15:45:58;3.65;;;1.38;;
82703;SDS011;72427;42.000;21.464;2024-03-23T15:48:25;2.85;;;1.33;;
82703;SDS011;72427;42.000;21.464;2024-03-23T15:51:01;4.75;;;2.38;;
82703;SDS011;72427;42.000;21.464;2024-03-23T15:53:29;3.88;;;1.75;;